Target — 9HA2149 — position and weather

sailwx.info

Track history (hours):
 
Tides and Currents Weather Stations Pressure Air Temp Water Temp Dewpoint Dewpoint Depression Visibility Wind Speed Wind Dir Waves Ship Positions

Target

Last reported at 2014-Aug-01 15:33 UTC. Time now 2014-Aug-01 15:54 UTC.
Position N 54°33' E 019°02'.

Length 250 m; draft 14.9 m.

Type: Tanker. MMSI: 248057000.

Date/timePositionNaut miles runAvg speedWind from/ knotsBaromVisibWave heightAir tempDewpointWater temp
2014-Aug-01 15:33N 54°33' E 019°02'1111.4
2014-Aug-01 14:33N 54°44' E 019°04'1111.5
2014-Aug-01 13:33N 54°56' E 019°08'1111.2
2014-Aug-01 12:33N 55°06' E 019°12'1111.2
2014-Aug-01 11:33N 55°18' E 019°15'1210.6
2014-Aug-01 10:27N 55°29' E 019°20'8 0.2
2014-Jul-31 03:19N 55°31' E 019°07'0 0.1
2014-Jul-31 02:13N 55°31' E 019°07'0 0.2
2014-Jul-31 01:31N 55°32' E 019°07'0 0.4
2014-Jul-31 00:31N 55°32' E 019°07'0 0.3
2014-Jul-30 23:33N 55°32' E 019°07'0 0.2
2014-Jul-30 22:33N 55°32' E 019°07'0 0.1
2014-Jul-30 21:33N 55°32' E 019°07'0 0.3
2014-Jul-30 20:33N 55°32' E 019°06'0 0.4
2014-Jul-30 19:33N 55°32' E 019°05'0 0.4
2014-Jul-30 18:33N 55°32' E 019°05'1 0.5
2014-Jul-30 17:21N 55°32' E 019°04'2 0.6
2014-Jul-30 14:28N 55°30' E 019°03'1 0.7
2014-Jul-30 13:33N 55°29' E 019°03'2 1.6
2014-Jul-30 12:33N 55°29' E 019°01'1 0.9
2014-Jul-30 11:33N 55°28' E 019°02'0 0.3
2014-Jul-30 10:33N 55°28' E 019°03'1 0.6
2014-Jul-30 09:33N 55°28' E 019°02'2 1.6
2014-Jul-30 08:33N 55°30' E 019°01'1 0.5
2014-Jul-30 07:33N 55°30' E 019°00'3 2.8
2014-Jul-30 06:33N 55°32' E 019°01'1211.7
2014-Jul-30 05:33N 55°44' E 019°06'1211.6
2014-Jul-30 04:33N 55°55' E 019°10'1111.2
2014-Jul-30 03:33N 56°06' E 019°15'1311.6
2014-Jul-30 02:28N 56°19' E 019°20'2211.8
2014-Jul-30 00:33N 56°41' E 019°28'1211.7
2014-Jul-29 23:32N 56°52' E 019°33'1211.9
2014-Jul-29 22:33N 57°04' E 019°37'1312.1
2014-Jul-29 21:27N 57°17' E 019°42'1112.0
2014-Jul-29 20:33N 57°27' E 019°49'1311.9
2014-Jul-29 19:26N 57°39' E 019°59'87 9.8
2014-Jul-29 10:33N 58°55' E 021°19'1711.4
2014-Jul-29 09:04N 59°09' E 021°38'3411.5
2014-Jul-29 06:08N 59°30' E 022°30'811.5
2014-Jul-29 05:29N 59°32' E 022°44'1511.9
2014-Jul-29 04:13N 59°37' E 023°13'811.8
2014-Jul-29 03:32N 59°39' E 023°28'1212.0
2014-Jul-29 02:33N 59°42' E 023°50'1211.8
2014-Jul-29 01:33N 59°45' E 024°13'5011.6
2014-Jul-28 21:15N 59°55' E 025°50'911.7
2014-Jul-28 20:32N 59°58' E 026°06'1111.6
2014-Jul-28 19:33N 60°01' E 026°28'1111.3
2014-Jul-28 18:33N 60°00' E 026°51'1110.7
2014-Jul-28 17:33N 60°02' E 027°12'1111.5
2014-Jul-28 16:33N 60°08' E 027°31'37 1.0
2014-Jul-27 04:03N 60°20' E 028°41'20 1.2
2014-Jul-26 11:21N 60°01' E 028°28'0 0.0
2014-Jul-26 07:30N 60°01' E 028°28'0 0.0
2014-Jul-25 21:27N 60°01' E 028°28'  
Track history (hours):
 
Tides and Currents Weather Stations Pressure Air Temp Water Temp Dewpoint Dewpoint Depression Visibility Wind Speed Wind Dir Waves Ship Positions

Target

Last reported at 2014-Aug-01 15:33 UTC. Time now 2014-Aug-01 15:54 UTC.
Position N 54°33' E 019°02'.

Length 250 m; draft 14.9 m.

Type: Tanker. MMSI: 248057000.

Date/timePositionNaut miles runAvg speedWind from/ knotsBaromVisibWave heightAir tempDewpointWater temp
2014-Aug-01 15:33N 54°33' E 019°02'1111.4
2014-Aug-01 14:33N 54°44' E 019°04'1111.5
2014-Aug-01 13:33N 54°56' E 019°08'1111.2
2014-Aug-01 12:33N 55°06' E 019°12'1111.2
2014-Aug-01 11:33N 55°18' E 019°15'1210.6
2014-Aug-01 10:27N 55°29' E 019°20'8 0.2
2014-Jul-31 03:19N 55°31' E 019°07'0 0.1
2014-Jul-31 02:13N 55°31' E 019°07'0 0.2
2014-Jul-31 01:31N 55°32' E 019°07'0 0.4
2014-Jul-31 00:31N 55°32' E 019°07'0 0.3
2014-Jul-30 23:33N 55°32' E 019°07'0 0.2
2014-Jul-30 22:33N 55°32' E 019°07'0 0.1
2014-Jul-30 21:33N 55°32' E 019°07'0 0.3
2014-Jul-30 20:33N 55°32' E 019°06'0 0.4
2014-Jul-30 19:33N 55°32' E 019°05'0 0.4
2014-Jul-30 18:33N 55°32' E 019°05'1 0.5
2014-Jul-30 17:21N 55°32' E 019°04'2 0.6
2014-Jul-30 14:28N 55°30' E 019°03'1 0.7
2014-Jul-30 13:33N 55°29' E 019°03'2 1.6
2014-Jul-30 12:33N 55°29' E 019°01'1 0.9
2014-Jul-30 11:33N 55°28' E 019°02'0 0.3
2014-Jul-30 10:33N 55°28' E 019°03'1 0.6
2014-Jul-30 09:33N 55°28' E 019°02'2 1.6
2014-Jul-30 08:33N 55°30' E 019°01'1 0.5
2014-Jul-30 07:33N 55°30' E 019°00'3 2.8
2014-Jul-30 06:33N 55°32' E 019°01'1211.7
2014-Jul-30 05:33N 55°44' E 019°06'1211.6
2014-Jul-30 04:33N 55°55' E 019°10'1111.2
2014-Jul-30 03:33N 56°06' E 019°15'1311.6
2014-Jul-30 02:28N 56°19' E 019°20'2211.8
2014-Jul-30 00:33N 56°41' E 019°28'1211.7
2014-Jul-29 23:32N 56°52' E 019°33'1211.9
2014-Jul-29 22:33N 57°04' E 019°37'1312.1
2014-Jul-29 21:27N 57°17' E 019°42'1112.0
2014-Jul-29 20:33N 57°27' E 019°49'1311.9
2014-Jul-29 19:26N 57°39' E 019°59'87 9.8
2014-Jul-29 10:33N 58°55' E 021°19'1711.4
2014-Jul-29 09:04N 59°09' E 021°38'3411.5
2014-Jul-29 06:08N 59°30' E 022°30'811.5
2014-Jul-29 05:29N 59°32' E 022°44'1511.9
2014-Jul-29 04:13N 59°37' E 023°13'811.8
2014-Jul-29 03:32N 59°39' E 023°28'1212.0
2014-Jul-29 02:33N 59°42' E 023°50'1211.8
2014-Jul-29 01:33N 59°45' E 024°13'5011.6
2014-Jul-28 21:15N 59°55' E 025°50'911.7
2014-Jul-28 20:32N 59°58' E 026°06'1111.6
2014-Jul-28 19:33N 60°01' E 026°28'1111.3
2014-Jul-28 18:33N 60°00' E 026°51'1110.7
2014-Jul-28 17:33N 60°02' E 027°12'1111.5
2014-Jul-28 16:33N 60°08' E 027°31'37 1.0
2014-Jul-27 04:03N 60°20' E 028°41'20 1.2
2014-Jul-26 11:21N 60°01' E 028°28'0 0.0
2014-Jul-26 07:30N 60°01' E 028°28'0 0.0
2014-Jul-25 21:27N 60°01' E 028°28'  

Dump ship's entire track history